sensor_id;sensor_type;location;lat;lon;timestamp;temperature;humidity
26212;DHT22;13951;49.516;6.094;2024-03-22T00:01:49;11.80;99.90
26212;DHT22;13951;49.516;6.094;2024-03-22T00:04:22;11.80;99.90
26212;DHT22;13951;49.516;6.094;2024-03-22T00:06:55;11.80;99.90
26212;DHT22;13951;49.516;6.094;2024-03-22T00:09:27;11.70;99.90
26212;DHT22;13951;49.516;6.094;2024-03-22T00:12:15;11.80;99.90
26212;DHT22;13951;49.516;6.094;2024-03-22T00:14:47;11.80;99.90
26212;DHT22;13951;49.516;6.094;2024-03-22T00:17:20;11.80;99.90
26212;DHT22;13951;49.516;6.094;2024-03-22T00:19:52;11.80;99.90
26212;DHT22;13951;49.516;6.094;2024-03-22T00:22:56;11.70;99.90
26212;DHT22;13951;49.516;6.094;2024-03-22T00:29:37;11.70;99.90
26212;DHT22;13951;49.516;6.094;2024-03-22T00:33:10;11.70;99.90
26212;DHT22;13951;49.516;6.094;2024-03-22T00:36:55;11.60;99.90
26212;DHT22;13951;49.516;6.094;2024-03-22T00:40:22;11.60;99.90
26212;DHT22;13951;49.516;6.094;2024-03-22T00:42:55;11.60;99.90
26212;DHT22;13951;49.516;6.094;2024-03-22T00:45:27;11.60;99.90
26212;DHT22;13951;49.516;6.094;2024-03-22T00:47:59;11.60;99.90
26212;DHT22;13951;49.516;6.094;2024-03-22T00:50:33;11.60;99.90
26212;DHT22;13951;49.516;6.094;2024-03-22T00:54:21;11.60;99.90
26212;DHT22;13951;49.516;6.094;2024-03-22T00:57:09;11.60;99.90
26212;DHT22;13951;49.516;6.094;2024-03-22T01:00:00;11.60;99.90
26212;DHT22;13951;49.516;6.094;2024-03-22T01:17:17;11.80;99.90
26212;DHT22;13951;49.516;6.094;2024-03-22T01:20:10;11.80;99.90
26212;DHT22;13951;49.516;6.094;2024-03-22T01:23:58;11.80;99.90
26212;DHT22;13951;49.516;6.094;2024-03-22T01:31:49;11.70;99.90
26212;DHT22;13951;49.516;6.094;2024-03-22T01:35:40;11.70;99.90
26212;DHT22;13951;49.516;6.094;2024-03-22T01:39:11;11.70;99.90
26212;DHT22;13951;49.516;6.094;2024-03-22T01:41:44;11.70;99.90
26212;DHT22;13951;49.516;6.094;2024-03-22T12:47:24;21.70;99.90
26212;DHT22;13951;49.516;6.094;2024-03-22T12:49:56;21.90;99.90
26212;DHT22;13951;49.516;6.094;2024-03-22T12:52:28;21.90;99.90
26212;DHT22;13951;49.516;6.094;2024-03-22T12:55:00;21.90;99.90
26212;DHT22;13951;49.516;6.094;2024-03-22T12:57:32;21.70;99.90
26212;DHT22;13951;49.516;6.094;2024-03-22T13:00:06;21.60;99.90
26212;DHT22;13951;49.516;6.094;2024-03-22T13:02:45;21.60;99.90
26212;DHT22;13951;49.516;6.094;2024-03-22T13:05:17;21.70;99.90
26212;DHT22;13951;49.516;6.094;2024-03-22T13:07:49;21.50;99.90
26212;DHT22;13951;49.516;6.094;2024-03-22T13:10:21;20.80;99.90
26212;DHT22;13951;49.516;6.094;2024-03-22T13:12:53;20.20;99.90
26212;DHT22;13951;49.516;6.094;2024-03-22T13:15:25;19.70;99.90
26212;DHT22;13951;49.516;6.094;2024-03-22T13:17:57;19.30;99.90
26212;DHT22;13951;49.516;6.094;2024-03-22T13:20:30;18.90;99.90
26212;DHT22;13951;49.516;6.094;2024-03-22T13:23:02;18.60;99.90
26212;DHT22;13951;49.516;6.094;2024-03-22T13:25:35;18.40;99.90
26212;DHT22;13951;49.516;6.094;2024-03-22T13:28:08;18.30;99.90
26212;DHT22;13951;49.516;6.094;2024-03-22T13:30:40;18.10;99.90
26212;DHT22;13951;49.516;6.094;2024-03-22T13:33:13;18.00;99.90
26212;DHT22;13951;49.516;6.094;2024-03-22T13:35:45;18.00;99.90
26212;DHT22;13951;49.516;6.094;2024-03-22T13:38:17;18.00;99.90
26212;DHT22;13951;49.516;6.094;2024-03-22T13:40:56;18.10;99.90
26212;DHT22;13951;49.516;6.094;2024-03-22T13:43:29;18.00;99.90
26212;DHT22;13951;49.516;6.094;2024-03-22T13:46:01;18.00;99.90
26212;DHT22;13951;49.516;6.094;2024-03-22T13:48:33;17.80;99.90
26212;DHT22;13951;49.516;6.094;2024-03-22T13:51:05;17.80;99.90
26212;DHT22;13951;49.516;6.094;2024-03-22T13:53:37;17.60;99.90
26212;DHT22;13951;49.516;6.094;2024-03-22T13:56:09;17.50;99.90
26212;DHT22;13951;49.516;6.094;2024-03-22T13:58:41;17.40;99.90
26212;DHT22;13951;49.516;6.094;2024-03-22T14:01:13;17.30;99.90
26212;DHT22;13951;49.516;6.094;2024-03-22T14:03:45;17.30;99.90
26212;DHT22;13951;49.516;6.094;2024-03-22T14:06:17;17.20;99.90
26212;DHT22;13951;49.516;6.094;2024-03-22T14:08:49;17.20;99.90
26212;DHT22;13951;49.516;6.094;2024-03-22T14:11:21;17.20;99.90
26212;DHT22;13951;49.516;6.094;2024-03-22T14:13:53;17.10;99.90
26212;DHT22;13951;49.516;6.094;2024-03-22T14:16:25;17.10;99.90
26212;DHT22;13951;49.516;6.094;2024-03-22T14:18:57;17.00;99.90
26212;DHT22;13951;49.516;6.094;2024-03-22T14:21:29;17.00;99.90
26212;DHT22;13951;49.516;6.094;2024-03-22T14:24:02;17.10;99.90
26212;DHT22;13951;49.516;6.094;2024-03-22T14:26:35;17.10;99.90
26212;DHT22;13951;49.516;6.094;2024-03-22T14:29:13;17.10;99.90
26212;DHT22;13951;49.516;6.094;2024-03-22T14:31:45;17.10;99.90
26212;DHT22;13951;49.516;6.094;2024-03-22T14:34:18;17.10;99.90
26212;DHT22;13951;49.516;6.094;2024-03-22T14:36:50;16.90;99.90
26212;DHT22;13951;49.516;6.094;2024-03-22T14:39:22;16.90;99.90
26212;DHT22;13951;49.516;6.094;2024-03-22T14:41:55;16.80;99.90
26212;DHT22;13951;49.516;6.094;2024-03-22T14:44:27;16.80;99.90
26212;DHT22;13951;49.516;6.094;2024-03-22T14:46:59;16.80;99.90
26212;DHT22;13951;49.516;6.094;2024-03-22T14:49:31;16.60;99.90
26212;DHT22;13951;49.516;6.094;2024-03-22T14:52:03;16.60;99.90
26212;DHT22;13951;49.516;6.094;2024-03-22T14:54:36;16.50;99.90
26212;DHT22;13951;49.516;6.094;2024-03-22T14:57:08;16.50;99.90
26212;DHT22;13951;49.516;6.094;2024-03-22T14:59:41;16.50;99.90
26212;DHT22;13951;49.516;6.094;2024-03-22T15:02:12;16.50;99.90
26212;DHT22;13951;49.516;6.094;2024-03-22T15:04:44;16.40;99.90
26212;DHT22;13951;49.516;6.094;2024-03-22T15:07:16;16.40;99.90
26212;DHT22;13951;49.516;6.094;2024-03-22T15:09:49;16.40;99.90
26212;DHT22;13951;49.516;6.094;2024-03-22T15:12:22;16.20;99.90
26212;DHT22;13951;49.516;6.094;2024-03-22T15:14:54;16.20;99.90
26212;DHT22;13951;49.516;6.094;2024-03-22T15:17:26;16.20;99.90
26212;DHT22;13951;49.516;6.094;2024-03-22T15:19:58;16.20;99.90
26212;DHT22;13951;49.516;6.094;2024-03-22T15:22:30;16.30;99.90
26212;DHT22;13951;49.516;6.094;2024-03-22T15:25:02;16.30;99.90
26212;DHT22;13951;49.516;6.094;2024-03-22T15:27:34;16.30;99.90
26212;DHT22;13951;49.516;6.094;2024-03-22T15:30:07;16.30;99.90
26212;DHT22;13951;49.516;6.094;2024-03-22T15:32:43;16.40;99.90
26212;DHT22;13951;49.516;6.094;2024-03-22T15:35:15;16.40;99.90
26212;DHT22;13951;49.516;6.094;2024-03-22T15:37:47;16.40;99.90
26212;DHT22;13951;49.516;6.094;2024-03-22T15:40:20;16.40;99.90
26212;DHT22;13951;49.516;6.094;2024-03-22T15:42:52;16.30;99.90
26212;DHT22;13951;49.516;6.094;2024-03-22T15:45:24;16.30;99.90
26212;DHT22;13951;49.516;6.094;2024-03-22T15:47:56;16.20;99.90
26212;DHT22;13951;49.516;6.094;2024-03-22T15:50:28;16.10;99.90
26212;DHT22;13951;49.516;6.094;2024-03-22T15:53:00;16.10;99.90
26212;DHT22;13951;49.516;6.094;2024-03-22T15:55:32;16.10;99.90
26212;DHT22;13951;49.516;6.094;2024-03-22T15:58:04;16.00;99.90
26212;DHT22;13951;49.516;6.094;2024-03-22T16:00:37;16.00;99.90
26212;DHT22;13951;49.516;6.094;2024-03-22T16:03:09;16.00;99.90
26212;DHT22;13951;49.516;6.094;2024-03-22T16:05:50;16.00;99.90
26212;DHT22;13951;49.516;6.094;2024-03-22T16:08:23;16.00;99.90
26212;DHT22;13951;49.516;6.094;2024-03-22T16:10:55;16.00;99.90
26212;DHT22;13951;49.516;6.094;2024-03-22T16:13:27;15.90;99.90
26212;DHT22;13951;49.516;6.094;2024-03-22T16:15:59;15.80;99.90
26212;DHT22;13951;49.516;6.094;2024-03-22T16:18:30;15.70;99.90
26212;DHT22;13951;49.516;6.094;2024-03-22T16:21:04;15.60;99.90
26212;DHT22;13951;49.516;6.094;2024-03-22T16:23:36;15.60;99.90
26212;DHT22;13951;49.516;6.094;2024-03-22T16:26:08;15.60;99.90
26212;DHT22;13951;49.516;6.094;2024-03-22T16:28:40;15.60;99.90
26212;DHT22;13951;49.516;6.094;2024-03-22T16:31:12;15.60;99.90
26212;DHT22;13951;49.516;6.094;2024-03-22T16:33:44;15.60;99.90
26212;DHT22;13951;49.516;6.094;2024-03-22T16:36:17;15.60;99.90
26212;DHT22;13951;49.516;6.094;2024-03-22T16:38:49;15.60;99.90
26212;DHT22;13951;49.516;6.094;2024-03-22T16:41:21;15.70;99.90
26212;DHT22;13951;49.516;6.094;2024-03-22T16:43:53;15.70;99.90
26212;DHT22;13951;49.516;6.094;2024-03-22T16:46:26;15.70;99.90
26212;DHT22;13951;49.516;6.094;2024-03-22T16:48:59;15.70;99.90
26212;DHT22;13951;49.516;6.094;2024-03-22T16:51:31;15.60;99.90
26212;DHT22;13951;49.516;6.094;2024-03-22T16:54:03;15.60;99.90
26212;DHT22;13951;49.516;6.094;2024-03-22T16:56:38;15.50;99.90
26212;DHT22;13951;49.516;6.094;2024-03-22T16:59:10;15.60;99.90
26212;DHT22;13951;49.516;6.094;2024-03-22T17:01:42;15.50;99.90
26212;DHT22;13951;49.516;6.094;2024-03-22T17:04:14;15.50;99.90
26212;DHT22;13951;49.516;6.094;2024-03-22T17:06:46;15.50;99.90
26212;DHT22;13951;49.516;6.094;2024-03-22T17:09:18;15.40;99.90
26212;DHT22;13951;49.516;6.094;2024-03-22T17:11:51;15.40;99.90
26212;DHT22;13951;49.516;6.094;2024-03-22T17:14:23;15.30;99.90
26212;DHT22;13951;49.516;6.094;2024-03-22T17:16:55;15.30;99.90
26212;DHT22;13951;49.516;6.094;2024-03-22T17:19:27;15.20;99.90
26212;DHT22;13951;49.516;6.094;2024-03-22T17:21:59;15.30;99.90
26212;DHT22;13951;49.516;6.094;2024-03-22T17:24:33;15.30;99.90
26212;DHT22;13951;49.516;6.094;2024-03-22T17:27:05;15.30;99.90
26212;DHT22;13951;49.516;6.094;2024-03-22T17:29:37;15.20;99.90
26212;DHT22;13951;49.516;6.094;2024-03-22T17:32:10;15.20;99.90
26212;DHT22;13951;49.516;6.094;2024-03-22T17:34:42;15.20;99.90
26212;DHT22;13951;49.516;6.094;2024-03-22T17:37:14;15.10;99.90
26212;DHT22;13951;49.516;6.094;2024-03-22T17:39:48;15.10;99.90
26212;DHT22;13951;49.516;6.094;2024-03-22T17:42:20;15.10;99.90
26212;DHT22;13951;49.516;6.094;2024-03-22T17:44:52;15.10;99.90
26212;DHT22;13951;49.516;6.094;2024-03-22T17:47:24;15.10;99.90
26212;DHT22;13951;49.516;6.094;2024-03-22T17:49:57;15.00;99.90
26212;DHT22;13951;49.516;6.094;2024-03-22T17:52:29;15.00;99.90
26212;DHT22;13951;49.516;6.094;2024-03-22T17:55:01;14.90;99.90
26212;DHT22;13951;49.516;6.094;2024-03-22T17:57:34;14.90;99.90
26212;DHT22;13951;49.516;6.094;2024-03-22T18:00:07;14.90;99.90
26212;DHT22;13951;49.516;6.094;2024-03-22T18:02:40;14.90;99.90
26212;DHT22;13951;49.516;6.094;2024-03-22T18:05:12;14.80;99.90
26212;DHT22;13951;49.516;6.094;2024-03-22T18:07:44;14.80;99.90
26212;DHT22;13951;49.516;6.094;2024-03-22T18:10:16;14.80;99.90
26212;DHT22;13951;49.516;6.094;2024-03-22T18:12:48;14.80;99.90
26212;DHT22;13951;49.516;6.094;2024-03-22T18:15:25;14.70;99.90
26212;DHT22;13951;49.516;6.094;2024-03-22T18:17:57;14.70;99.90
26212;DHT22;13951;49.516;6.094;2024-03-22T18:20:29;14.60;99.90
26212;DHT22;13951;49.516;6.094;2024-03-22T18:23:01;14.60;99.90
26212;DHT22;13951;49.516;6.094;2024-03-22T18:25:33;14.50;99.90
26212;DHT22;13951;49.516;6.094;2024-03-22T18:28:05;14.50;99.90
26212;DHT22;13951;49.516;6.094;2024-03-22T18:30:37;14.50;99.90
26212;DHT22;13951;49.516;6.094;2024-03-22T18:33:09;14.40;99.90
